createdAt,value
2019-03-24T00:02:51.955Z,5.60
2019-03-24T00:07:56.807Z,5.50
2019-03-24T00:12:59.613Z,5.40
2019-03-24T00:18:02.557Z,5.30
2019-03-24T00:23:05.723Z,5.30
2019-03-24T00:28:08.968Z,5.20
2019-03-24T00:33:11.864Z,5.10
2019-03-24T00:38:14.770Z,5.00
2019-03-24T00:43:17.655Z,4.90
2019-03-24T00:48:20.567Z,5.00
2019-03-24T00:53:23.467Z,4.90
2019-03-24T00:58:26.772Z,4.90
2019-03-24T01:03:30.423Z,4.90
2019-03-24T01:08:33.336Z,4.80
2019-03-24T01:13:36.264Z,4.80
2019-03-24T01:18:39.057Z,4.80
2019-03-24T01:23:42.070Z,4.70
2019-03-24T01:28:46.286Z,4.70
2019-03-24T01:33:49.624Z,4.60
2019-03-24T01:38:52.683Z,4.50
2019-03-24T01:43:55.747Z,4.50
2019-03-24T01:48:58.739Z,4.50
2019-03-24T01:54:01.846Z,4.40
2019-03-24T01:59:05.543Z,4.40
2019-03-24T02:04:08.455Z,4.40
2019-03-24T02:09:12.540Z,4.40
2019-03-24T02:14:15.431Z,4.50
2019-03-24T02:19:18.231Z,4.50
2019-03-24T02:24:21.061Z,4.40
2019-03-24T02:29:25.433Z,4.60
2019-03-24T02:34:28.368Z,4.70
2019-03-24T02:39:31.346Z,5.00
2019-03-24T02:44:34.258Z,5.10
2019-03-24T02:49:37.152Z,5.20
2019-03-24T02:54:40.059Z,5.40
2019-03-24T02:59:43.161Z,5.30
2019-03-24T03:04:47.059Z,5.20
2019-03-24T03:09:50.264Z,5.10
2019-03-24T03:14:53.130Z,5.10
2019-03-24T03:19:56.016Z,5.00
2019-03-24T03:24:59.411Z,4.90
2019-03-24T03:30:02.643Z,5.20
2019-03-24T03:35:07.939Z,5.50
2019-03-24T03:40:11.099Z,5.40
2019-03-24T03:45:23.177Z,5.30
2019-03-24T03:50:26.088Z,5.50
2019-03-24T03:55:28.963Z,5.90
2019-03-24T04:00:33.380Z,6.00
2019-03-24T04:05:37.855Z,5.80
2019-03-24T04:10:40.839Z,5.60
2019-03-24T04:15:43.708Z,5.40
2019-03-24T04:20:46.950Z,5.30
2019-03-24T04:25:49.745Z,5.10
2019-03-24T04:30:52.645Z,5.00
2019-03-24T04:35:55.659Z,4.80
2019-03-24T04:40:58.567Z,4.70
2019-03-24T04:46:01.595Z,4.50
2019-03-24T04:51:04.531Z,4.50
2019-03-24T04:56:07.455Z,4.50
2019-03-24T05:01:10.407Z,4.40
2019-03-24T05:06:15.275Z,4.40
2019-03-24T05:11:18.331Z,4.30
2019-03-24T05:16:21.239Z,4.50
2019-03-24T05:21:24.266Z,4.80
2019-03-24T05:26:27.070Z,5.10
2019-03-24T05:31:30.007Z,5.30
2019-03-24T05:36:33.795Z,5.30
2019-03-24T05:41:36.860Z,5.20
2019-03-24T05:46:39.675Z,5.20
2019-03-24T05:51:42.571Z,5.20
2019-03-24T05:56:45.458Z,5.20
2019-03-24T06:01:49.286Z,5.40
2019-03-24T06:06:52.183Z,5.60
2019-03-24T06:11:55.066Z,5.70
2019-03-24T06:16:58.130Z,5.90
2019-03-24T06:22:01.107Z,6.30
2019-03-24T06:27:04.016Z,6.70
2019-03-24T06:32:07.023Z,7.10
2019-03-24T06:37:10.364Z,7.40
2019-03-24T06:42:13.427Z,7.70
2019-03-24T06:47:16.736Z,8.00
2019-03-24T06:52:19.818Z,8.30
2019-03-24T06:57:23.035Z,8.50
2019-03-24T07:02:26.051Z,8.70
2019-03-24T07:07:29.087Z,9.00
2019-03-24T07:12:32.489Z,9.20
2019-03-24T07:17:37.615Z,9.40
2019-03-24T07:22:40.137Z,9.60
2019-03-24T07:27:43.039Z,9.70
2019-03-24T07:32:45.951Z,9.90
2019-03-24T07:37:50.334Z,10.10
2019-03-24T07:42:53.347Z,10.30
2019-03-24T07:47:57.188Z,10.50
2019-03-24T07:53:00.197Z,10.60
2019-03-24T07:58:03.346Z,10.80
2019-03-24T08:03:08.018Z,10.90
2019-03-24T08:08:11.079Z,11.00
2019-03-24T08:13:13.867Z,11.10
2019-03-24T08:18:16.656Z,11.30
2019-03-24T08:23:19.527Z,11.40
2019-03-24T08:28:23.232Z,11.60
2019-03-24T08:33:26.162Z,11.70
2019-03-24T08:38:29.355Z,11.80
2019-03-24T08:43:32.247Z,11.90
2019-03-24T08:48:40.807Z,12.00
2019-03-24T08:53:39.958Z,12.10
2019-03-24T08:58:43.007Z,12.30
2019-03-24T09:03:45.880Z,12.40
2019-03-24T09:08:49.755Z,12.50
2019-03-24T09:13:52.847Z,12.70
2019-03-24T09:18:56.072Z,12.80
2019-03-24T09:23:59.254Z,13.00
2019-03-24T09:29:02.171Z,13.20
2019-03-24T09:34:05.465Z,13.40
2019-03-24T09:39:08.585Z,13.60
2019-03-24T09:44:11.556Z,13.90
2019-03-24T09:49:14.471Z,14.00
2019-03-24T09:54:17.269Z,14.20
2019-03-24T09:59:20.259Z,14.40
2019-03-24T10:04:23.093Z,14.50
2019-03-24T10:09:26.668Z,14.70
2019-03-24T10:14:29.684Z,15.00
2019-03-24T10:19:32.620Z,15.10
2019-03-24T10:24:35.519Z,15.30
2019-03-24T10:29:38.427Z,15.60
2019-03-24T10:34:41.364Z,15.80
2019-03-24T10:39:44.636Z,16.00
2019-03-24T10:44:47.663Z,16.20
2019-03-24T10:49:51.019Z,16.40
2019-03-24T11:00:42.810Z,16.80
2019-03-24T11:05:46.042Z,16.90
2019-03-24T11:10:49.479Z,17.00
2019-03-24T11:15:52.416Z,17.30
2019-03-24T11:20:55.341Z,17.60
2019-03-24T11:25:58.507Z,17.60
2019-03-24T11:31:01.853Z,17.50
2019-03-24T11:36:06.474Z,17.60
2019-03-24T11:41:10.003Z,17.90
2019-03-24T11:46:13.252Z,18.00
2019-03-24T11:51:16.080Z,18.10
2019-03-24T11:56:19.111Z,18.20
2019-03-24T12:01:22.001Z,18.30
2019-03-24T12:06:24.987Z,18.70
2019-03-24T12:11:28.448Z,18.80
2019-03-24T12:16:31.536Z,19.10
2019-03-24T12:21:35.044Z,19.50
2019-03-24T12:26:37.991Z,19.60
2019-03-24T12:31:40.891Z,19.50
2019-03-24T12:36:43.996Z,19.50
2019-03-24T12:41:47.043Z,19.50
2019-03-24T12:46:50.515Z,19.40
2019-03-24T12:51:53.702Z,19.60
2019-03-24T12:56:56.899Z,20.10
2019-03-24T13:02:00.416Z,20.40
2019-03-24T13:07:03.345Z,20.50
2019-03-24T13:12:06.478Z,20.00
2019-03-24T13:17:09.678Z,20.00
2019-03-24T13:22:12.960Z,20.40
2019-03-24T13:27:16.048Z,20.70
2019-03-24T13:32:22.303Z,21.30
2019-03-24T13:37:25.889Z,21.50
2019-03-24T13:42:29.055Z,21.30
2019-03-24T13:47:32.375Z,21.50
2019-03-24T13:52:35.710Z,21.40
2019-03-24T13:57:40.783Z,21.30
2019-03-24T14:02:43.951Z,21.00
2019-03-24T14:07:46.881Z,20.80
2019-03-24T14:12:50.055Z,20.70
2019-03-24T14:17:53.023Z,20.80
2019-03-24T14:22:56.239Z,20.70
2019-03-24T14:27:59.658Z,20.70
2019-03-24T14:33:02.993Z,20.60
2019-03-24T14:38:06.304Z,21.00
2019-03-24T14:43:09.219Z,21.60
2019-03-24T14:48:12.378Z,22.80
2019-03-24T14:53:15.575Z,23.50
2019-03-24T14:58:21.644Z,24.10
2019-03-24T15:03:26.166Z,24.90
2019-03-24T15:08:29.091Z,25.30
2019-03-24T15:13:33.304Z,25.40
2019-03-24T15:18:36.143Z,24.80
2019-03-24T15:23:39.315Z,23.80
2019-03-24T15:28:42.704Z,23.20
2019-03-24T15:33:45.654Z,23.60
2019-03-24T15:38:48.633Z,23.60
2019-03-24T15:43:54.933Z,23.40
2019-03-24T15:49:01.364Z,23.30
2019-03-24T15:54:09.696Z,23.20
2019-03-24T15:59:15.747Z,22.60
2019-03-24T16:04:19.795Z,21.70
2019-03-24T16:09:29.376Z,21.40
2019-03-24T16:14:36.502Z,21.10
2019-03-24T16:19:39.858Z,20.70
2019-03-24T16:24:43.024Z,20.40
2019-03-24T16:29:46.717Z,20.10
2019-03-24T16:34:49.691Z,19.60
2019-03-24T16:39:52.670Z,18.80
2019-03-24T16:44:55.664Z,18.20
2019-03-24T16:49:59.172Z,17.70
2019-03-24T16:55:02.751Z,17.10
2019-03-24T17:00:06.958Z,16.70
2019-03-24T17:05:11.159Z,16.40
2019-03-24T17:10:14.107Z,16.20
2019-03-24T17:15:17.088Z,16.10
2019-03-24T17:20:20.115Z,15.90
2019-03-24T17:25:23.129Z,15.60
2019-03-24T17:30:26.430Z,15.20
2019-03-24T17:35:30.198Z,15.00
2019-03-24T17:40:38.754Z,14.70
2019-03-24T17:45:38.131Z,14.40
2019-03-24T17:50:42.707Z,14.20
2019-03-24T17:55:45.783Z,14.00
2019-03-24T18:00:52.067Z,13.80
2019-03-24T18:05:54.922Z,13.60
2019-03-24T18:10:57.870Z,13.40
2019-03-24T18:16:01.057Z,13.20
2019-03-24T18:27:15.559Z,12.80
2019-03-24T18:32:23.090Z,12.80
2019-03-24T18:37:25.908Z,12.70
2019-03-24T18:42:37.581Z,12.50
2019-03-24T18:47:41.031Z,12.30
2019-03-24T18:52:44.135Z,12.00
2019-03-24T18:57:47.193Z,11.90
2019-03-24T19:02:54.806Z,11.70
2019-03-24T19:07:58.505Z,11.50
2019-03-24T19:13:01.464Z,11.30
2019-03-24T19:18:06.009Z,11.10
2019-03-24T19:23:12.246Z,10.80
2019-03-24T19:28:17.846Z,10.40
2019-03-24T19:33:21.644Z,10.30
2019-03-24T19:38:26.747Z,10.10
2019-03-24T19:43:33.219Z,9.70
2019-03-24T19:48:37.408Z,9.40
2019-03-24T19:53:40.432Z,9.30
2019-03-24T19:58:51.686Z,9.30
2019-03-24T20:03:55.270Z,9.30
2019-03-24T20:08:58.894Z,9.30
2019-03-24T20:14:01.999Z,9.30
2019-03-24T20:19:05.864Z,9.40
2019-03-24T20:24:09.161Z,9.60
2019-03-24T20:29:18.855Z,9.50
2019-03-24T20:34:27.438Z,9.40
2019-03-24T20:39:31.063Z,9.60
2019-03-24T20:44:33.976Z,9.70
2019-03-24T20:49:40.994Z,9.70
2019-03-24T20:54:47.459Z,8.70
2019-03-24T20:59:56.253Z,9.30
2019-03-24T21:04:59.640Z,8.90
2019-03-24T21:10:09.658Z,8.60
2019-03-24T21:15:15.936Z,8.30
2019-03-24T21:20:18.889Z,8.00
2019-03-24T21:25:23.516Z,7.70
2019-03-24T21:30:34.833Z,7.40
2019-03-24T21:35:40.020Z,7.20
2019-03-24T21:40:43.093Z,7.10
2019-03-24T21:45:46.094Z,6.90
2019-03-24T21:50:49.140Z,6.80
2019-03-24T21:55:52.032Z,6.70
2019-03-24T22:00:54.957Z,6.90
2019-03-24T22:05:58.396Z,7.20
2019-03-24T22:11:01.346Z,7.50
2019-03-24T22:16:04.279Z,7.90
2019-03-24T22:21:07.197Z,8.30
2019-03-24T22:26:10.151Z,8.70
2019-03-24T22:31:13.269Z,9.00
2019-03-24T22:36:16.632Z,9.20
2019-03-24T22:41:19.595Z,9.50
2019-03-24T22:46:23.859Z,9.70
2019-03-24T22:51:26.763Z,9.90
2019-03-24T22:56:30.197Z,10.10
2019-03-24T23:01:33.273Z,10.20
2019-03-24T23:06:36.522Z,10.30
2019-03-24T23:11:39.463Z,10.40
2019-03-24T23:16:43.640Z,10.50
2019-03-24T23:21:46.497Z,10.50
2019-03-24T23:26:49.423Z,10.50
2019-03-24T23:31:52.704Z,10.50
2019-03-24T23:36:55.776Z,10.60
2019-03-24T23:41:58.856Z,10.70
2019-03-24T23:47:01.898Z,10.70
2019-03-24T23:52:04.831Z,10.70
2019-03-24T23:57:07.745Z,10.70
